createdAt,value
2019-05-22T00:00:00.851Z,12.85
2019-05-22T00:01:10.969Z,12.92
2019-05-22T00:02:21.128Z,12.88
2019-05-22T00:03:31.290Z,12.97
2019-05-22T00:04:41.623Z,12.8
2019-05-22T00:05:52.126Z,12.78
2019-05-22T00:07:02.243Z,12.84
2019-05-22T00:08:12.576Z,12.8
2019-05-22T00:09:22.876Z,12.77
2019-05-22T00:10:33.020Z,12.78
2019-05-22T00:11:43.148Z,12.78
2019-05-22T00:12:53.283Z,12.75
2019-05-22T00:14:03.412Z,12.72
2019-05-22T00:15:13.532Z,12.72
2019-05-22T00:16:23.890Z,12.62
2019-05-22T00:17:33.821Z,12.66
2019-05-22T00:18:43.972Z,12.62
2019-05-22T00:19:54.322Z,12.56
2019-05-22T00:21:04.241Z,12.56
2019-05-22T00:22:14.431Z,12.57
2019-05-22T00:23:24.535Z,12.63
2019-05-22T00:24:34.671Z,12.57
2019-05-22T00:25:44.795Z,12.57
2019-05-22T00:26:54.916Z,12.53
2019-05-22T00:28:05.053Z,12.6
2019-05-22T00:29:15.174Z,12.55
2019-05-22T00:30:25.302Z,12.6
2019-05-22T00:31:35.163Z,12.56
2019-05-22T00:32:45.275Z,12.57
2019-05-22T00:33:55.383Z,12.59
2019-05-22T00:35:05.514Z,12.55
2019-05-22T00:36:15.632Z,12.57
2019-05-22T00:37:25.812Z,12.53
2019-05-22T00:38:35.966Z,12.59
2019-05-22T00:39:46.089Z,12.57
2019-05-22T00:40:56.573Z,12.53
2019-05-22T00:42:06.687Z,12.6
2019-05-22T00:43:19.171Z,12.55
2019-05-22T00:44:29.320Z,12.56
2019-05-22T00:45:39.439Z,12.5
2019-05-22T00:46:49.185Z,12.55
2019-05-22T00:47:59.306Z,12.5
2019-05-22T00:49:09.462Z,12.38
2019-05-22T00:50:19.573Z,12.45
2019-05-22T00:51:29.676Z,12.45
2019-05-22T00:52:39.801Z,12.39
2019-05-22T00:53:50.021Z,12.42
2019-05-22T00:55:00.141Z,12.38
2019-05-22T00:56:10.271Z,12.34
2019-05-22T00:57:20.129Z,12.38
2019-05-22T00:58:30.247Z,12.45
2019-05-22T00:59:40.407Z,12.37
2019-05-22T01:00:50.533Z,12.42
2019-05-22T01:02:00.641Z,12.38
2019-05-22T01:03:10.849Z,12.39
2019-05-22T01:04:20.979Z,12.44
2019-05-22T01:05:31.185Z,12.41
2019-05-22T01:06:41.350Z,12.41
2019-05-22T01:07:51.526Z,12.38
2019-05-22T01:09:01.641Z,12.42
2019-05-22T01:10:12.293Z,12.47
2019-05-22T01:11:22.422Z,12.53
2019-05-22T01:12:32.284Z,12.52
2019-05-22T01:13:42.399Z,12.47
2019-05-22T01:14:52.600Z,12.38
2019-05-22T01:16:02.701Z,12.37
2019-05-22T01:17:12.859Z,12.35
2019-05-22T01:18:22.974Z,12.41
2019-05-22T01:19:33.226Z,12.39
2019-05-22T01:20:43.336Z,12.35
2019-05-22T01:21:53.440Z,12.45
2019-05-22T01:23:03.570Z,12.38
2019-05-22T01:24:13.695Z,12.38
2019-05-22T01:25:23.819Z,12.37
2019-05-22T01:26:33.672Z,12.45
2019-05-22T01:27:43.802Z,12.44
2019-05-22T01:28:53.925Z,12.45
2019-05-22T01:30:04.079Z,12.42
2019-05-22T01:31:14.212Z,12.39
2019-05-22T01:32:24.346Z,12.48
2019-05-22T01:33:34.465Z,12.38
2019-05-22T01:34:44.605Z,12.5
2019-05-22T01:35:54.717Z,12.39
2019-05-22T01:37:04.923Z,12.37
2019-05-22T01:38:14.686Z,12.38
2019-05-22T01:39:24.810Z,12.37
2019-05-22T01:40:34.922Z,12.39
2019-05-22T01:41:45.045Z,12.41
2019-05-22T01:42:55.167Z,12.35
2019-05-22T01:44:05.283Z,12.42
2019-05-22T01:45:15.397Z,12.39
2019-05-22T01:46:25.503Z,12.37
2019-05-22T01:47:35.641Z,12.52
2019-05-22T01:48:45.745Z,12.44
2019-05-22T01:49:55.864Z,12.38
2019-05-22T01:51:06.058Z,12.38
2019-05-22T01:52:16.186Z,12.42
2019-05-22T01:53:26.044Z,12.47
2019-05-22T01:54:36.189Z,12.37
2019-05-22T01:55:46.396Z,12.47
2019-05-22T01:56:56.521Z,12.35
2019-05-22T01:58:06.630Z,12.32
2019-05-22T01:59:16.735Z,12.29
2019-05-22T02:00:26.851Z,12.26
2019-05-22T02:01:36.977Z,12.26
2019-05-22T02:02:47.087Z,12.15
2019-05-22T02:03:57.213Z,12.19
2019-05-22T02:05:07.322Z,12.05
2019-05-22T02:06:17.479Z,12.09
2019-05-22T02:07:27.582Z,12.02
2019-05-22T02:08:37.702Z,12.04
2019-05-22T02:09:47.805Z,12.02
2019-05-22T02:10:57.925Z,11.97
2019-05-22T02:12:08.039Z,11.99
2019-05-22T02:13:18.197Z,11.9
2019-05-22T02:14:28.094Z,12.01
2019-05-22T02:15:38.201Z,11.91
2019-05-22T02:17:01.419Z,11.9
2019-05-22T02:18:11.559Z,11.95
2019-05-22T02:19:21.679Z,11.89
2019-05-22T02:20:31.555Z,11.89
2019-05-22T02:21:41.708Z,11.86
2019-05-22T02:22:51.825Z,11.97
2019-05-22T02:24:01.927Z,11.91
2019-05-22T02:25:12.499Z,11.89
2019-05-22T02:26:22.651Z,11.9
2019-05-22T02:27:32.762Z,11.94
2019-05-22T02:28:42.892Z,11.9
2019-05-22T02:29:53.027Z,11.91
2019-05-22T02:31:03.150Z,11.89
2019-05-22T02:32:13.292Z,11.9
2019-05-22T02:33:23.495Z,11.91
2019-05-22T02:34:33.623Z,11.94
2019-05-22T02:35:43.832Z,11.89
2019-05-22T02:36:53.971Z,11.79
2019-05-22T02:38:04.112Z,11.72
2019-05-22T02:39:14.287Z,11.86
2019-05-22T02:40:24.539Z,11.82
2019-05-22T02:41:34.680Z,11.77
2019-05-22T02:42:44.832Z,11.76
2019-05-22T02:43:54.947Z,11.74
2019-05-22T02:45:05.100Z,11.76
2019-05-22T02:46:15.272Z,11.71
2019-05-22T02:47:26.554Z,11.74
2019-05-22T02:48:36.738Z,11.74
2019-05-22T02:49:50.239Z,11.71
2019-05-22T02:51:00.423Z,11.83
2019-05-22T02:52:10.539Z,11.77
2019-05-22T02:53:20.668Z,11.77
2019-05-22T02:54:30.784Z,11.89
2019-05-22T02:55:40.916Z,11.76
2019-05-22T02:56:51.036Z,11.86
2019-05-22T02:58:01.187Z,11.79
2019-05-22T02:59:11.375Z,11.74
2019-05-22T03:00:21.489Z,11.66
2019-05-22T03:01:31.703Z,11.79
2019-05-22T03:02:41.842Z,11.79
2019-05-22T03:03:51.974Z,11.76
2019-05-22T03:05:01.958Z,11.79
2019-05-22T03:06:12.204Z,11.69
2019-05-22T03:07:22.335Z,11.65
2019-05-22T03:08:32.444Z,11.66
2019-05-22T03:09:42.570Z,11.69
2019-05-22T03:10:54.547Z,11.74
2019-05-22T03:12:04.673Z,11.66
2019-05-22T03:13:14.791Z,11.64
2019-05-22T03:14:24.906Z,11.69
2019-05-22T03:15:35.007Z,11.69
2019-05-22T03:16:44.872Z,11.64
2019-05-22T03:17:54.983Z,11.65
2019-05-22T03:19:14.033Z,11.71
2019-05-22T03:20:24.178Z,11.68
2019-05-22T03:21:34.366Z,11.62
2019-05-22T03:22:44.532Z,11.64
2019-05-22T03:23:54.677Z,11.66
2019-05-22T03:25:04.800Z,11.65
2019-05-22T03:26:14.969Z,11.61
2019-05-22T03:27:25.099Z,11.61
2019-05-22T03:28:35.204Z,11.61
2019-05-22T03:29:45.320Z,11.62
2019-05-22T03:30:55.489Z,11.53
2019-05-22T03:32:05.650Z,11.61
2019-05-22T03:33:15.887Z,11.57
2019-05-22T03:34:26.036Z,11.45
2019-05-22T03:35:36.541Z,11.46
2019-05-22T03:36:46.711Z,11.48
2019-05-22T03:37:56.841Z,11.49
2019-05-22T03:39:07.065Z,11.46
2019-05-22T03:40:17.198Z,11.4
2019-05-22T03:41:27.343Z,11.39
2019-05-22T03:42:36.869Z,11.4
2019-05-22T03:43:47.007Z,11.38
2019-05-22T03:44:57.172Z,11.4
2019-05-22T03:46:07.311Z,11.35
2019-05-22T03:47:17.437Z,11.42
2019-05-22T03:48:27.594Z,11.38
2019-05-22T03:49:37.713Z,11.38
2019-05-22T03:50:47.853Z,11.42
2019-05-22T03:51:57.738Z,11.42
2019-05-22T03:53:07.880Z,11.42
2019-05-22T03:54:18.007Z,11.43
2019-05-22T03:55:28.128Z,11.34
2019-05-22T03:56:38.249Z,11.33
2019-05-22T03:57:48.499Z,11.33
2019-05-22T03:58:58.631Z,11.33
2019-05-22T04:00:08.780Z,11.31
2019-05-22T04:01:18.902Z,11.34
2019-05-22T04:02:29.055Z,11.31
2019-05-22T04:03:39.276Z,11.38
2019-05-22T04:04:49.431Z,11.39
2019-05-22T04:05:59.604Z,11.42
2019-05-22T04:07:09.749Z,11.39
2019-05-22T04:08:20.083Z,11.34
2019-05-22T04:09:30.209Z,11.3
2019-05-22T04:10:43.552Z,11.31
2019-05-22T04:11:53.719Z,11.33
2019-05-22T04:13:03.903Z,11.28
2019-05-22T04:14:14.027Z,11.3
2019-05-22T04:15:24.221Z,11.33
2019-05-22T04:16:34.347Z,11.3
2019-05-22T04:17:44.263Z,11.3
2019-05-22T04:18:54.414Z,11.33
2019-05-22T04:20:04.562Z,11.33
2019-05-22T04:21:14.680Z,11.35
2019-05-22T04:22:24.577Z,11.31
2019-05-22T04:23:34.747Z,11.35
2019-05-22T04:24:44.907Z,11.33
2019-05-22T04:25:58.312Z,11.34
2019-05-22T04:27:08.501Z,11.23
2019-05-22T04:28:18.634Z,11.27
2019-05-22T04:29:28.773Z,11.21
2019-05-22T04:30:38.886Z,11.21
2019-05-22T04:31:49.002Z,11.21
2019-05-22T04:32:59.214Z,11.17
2019-05-22T04:34:09.359Z,11.13
2019-05-22T04:35:19.477Z,11.23
2019-05-22T04:36:29.593Z,11.23
2019-05-22T04:37:39.706Z,11.15
2019-05-22T04:38:49.837Z,11.15
2019-05-22T04:39:59.974Z,11.24
2019-05-22T04:41:10.104Z,11.25
2019-05-22T04:42:20.225Z,11.17
2019-05-22T04:43:30.365Z,11.21
2019-05-22T04:44:40.499Z,11.23
2019-05-22T04:45:50.353Z,11.2
2019-05-22T04:47:00.521Z,11.15
2019-05-22T04:48:10.686Z,11.09
2019-05-22T04:49:20.822Z,11.21
2019-05-22T04:50:31.116Z,11.23
2019-05-22T04:51:41.305Z,11.21
2019-05-22T04:52:51.521Z,11.2
2019-05-22T04:54:01.429Z,11.13
2019-05-22T04:55:11.550Z,11.21
2019-05-22T04:56:21.698Z,11.2
2019-05-22T04:57:31.830Z,11.17
2019-05-22T04:58:41.982Z,11.28
2019-05-22T04:59:52.130Z,11.16
2019-05-22T05:01:02.376Z,11.17
2019-05-22T05:02:12.611Z,11.15
2019-05-22T05:03:22.731Z,11.16
2019-05-22T05:04:32.862Z,11.15
2019-05-22T05:05:43.003Z,11.16
2019-05-22T05:06:53.168Z,11.15
2019-05-22T05:08:03.285Z,11.24
2019-05-22T05:09:13.417Z,11.17
2019-05-22T05:10:23.541Z,11.24
2019-05-22T05:11:33.659Z,11.15
2019-05-22T05:12:43.528Z,11.13
2019-05-22T05:13:53.638Z,11.17
2019-05-22T05:15:03.507Z,11.24
2019-05-22T05:16:13.630Z,11.25
2019-05-22T05:17:23.747Z,11.24
2019-05-22T05:18:33.887Z,11.23
2019-05-22T05:19:44.013Z,11.16
2019-05-22T05:20:54.121Z,11.12
2019-05-22T05:22:04.225Z,11.17
2019-05-22T05:23:14.360Z,11.12
2019-05-22T05:24:24.486Z,11.02
2019-05-22T05:25:34.593Z,11.1
2019-05-22T05:26:44.723Z,11.1
2019-05-22T05:27:54.853Z,11.09
2019-05-22T05:29:05.008Z,11.09
2019-05-22T05:30:15.134Z,10.98
2019-05-22T05:31:25.245Z,11.12
2019-05-22T05:32:35.420Z,11.08
2019-05-22T05:33:45.525Z,11.17
2019-05-22T05:34:55.628Z,11.12
2019-05-22T05:36:05.845Z,11.05
2019-05-22T05:37:15.961Z,11.09
2019-05-22T05:38:26.088Z,11.06
2019-05-22T05:39:36.215Z,11.03
2019-05-22T05:40:46.418Z,11.06
2019-05-22T05:41:56.560Z,11.1
2019-05-22T05:43:06.687Z,11.08
2019-05-22T05:44:16.819Z,11.15
2019-05-22T05:45:26.940Z,11.09
2019-05-22T05:46:37.052Z,11.21
2019-05-22T05:47:47.166Z,11.12
2019-05-22T05:48:57.289Z,11.16
2019-05-22T05:50:07.418Z,11.23
2019-05-22T05:51:17.584Z,11.25
2019-05-22T05:52:27.702Z,11.15
2019-05-22T05:53:37.823Z,11.27
2019-05-22T05:54:47.686Z,11.15
2019-05-22T05:55:57.828Z,11.16
2019-05-22T05:57:07.942Z,11.1
2019-05-22T05:58:18.060Z,11.21
2019-05-22T05:59:28.228Z,11.15
2019-05-22T06:00:38.001Z,11.24
2019-05-22T06:01:52.411Z,11.16
2019-05-22T06:03:02.550Z,11.25
2019-05-22T06:04:12.668Z,11.23
2019-05-22T06:05:22.781Z,11.23
2019-05-22T06:06:32.850Z,11.17
2019-05-22T06:07:42.976Z,11.16
2019-05-22T06:08:53.101Z,11.23
2019-05-22T06:10:02.995Z,11.24
2019-05-22T06:11:13.148Z,11.25
2019-05-22T06:12:23.262Z,11.31
2019-05-22T06:13:33.406Z,11.2
2019-05-22T06:14:43.563Z,11.3
2019-05-22T06:15:53.701Z,11.17
2019-05-22T06:17:03.877Z,11.33
2019-05-22T06:18:14.023Z,11.28
2019-05-22T06:19:24.140Z,11.28
2019-05-22T06:20:34.053Z,11.31
2019-05-22T06:21:44.187Z,11.38
2019-05-22T06:22:54.298Z,11.4
2019-05-22T06:24:04.426Z,11.43
2019-05-22T06:25:14.733Z,11.38
2019-05-22T06:26:24.930Z,11.43
2019-05-22T06:27:35.056Z,11.39
2019-05-22T06:28:45.194Z,11.43
2019-05-22T06:29:55.397Z,11.35
2019-05-22T06:31:05.579Z,11.31
2019-05-22T06:32:15.706Z,11.38
2019-05-22T06:33:25.839Z,11.28
2019-05-22T06:34:36.063Z,11.39
2019-05-22T06:35:46.188Z,11.43
2019-05-22T06:36:56.317Z,11.42
2019-05-22T06:38:06.508Z,11.33
2019-05-22T06:39:16.907Z,11.48
2019-05-22T06:40:27.055Z,11.42
2019-05-22T06:41:36.915Z,11.35
2019-05-22T06:42:47.034Z,11.4
2019-05-22T06:43:57.166Z,11.49
2019-05-22T06:45:08.390Z,11.5
2019-05-22T06:46:18.584Z,11.46
2019-05-22T06:47:28.705Z,11.48
2019-05-22T06:48:38.819Z,11.43
2019-05-22T06:49:48.773Z,11.45
2019-05-22T06:50:58.903Z,11.46
2019-05-22T06:52:23.995Z,11.49
2019-05-22T06:53:34.104Z,11.48
2019-05-22T06:54:44.222Z,11.52
2019-05-22T06:55:54.326Z,11.48
2019-05-22T06:57:04.446Z,11.46
2019-05-22T06:58:14.569Z,11.57
2019-05-22T06:59:24.996Z,11.53
2019-05-22T07:00:35.108Z,11.45
2019-05-22T07:01:45.242Z,11.49
2019-05-22T07:02:55.380Z,11.57
2019-05-22T07:04:05.489Z,11.45
2019-05-22T07:05:15.354Z,11.48
2019-05-22T07:06:25.476Z,11.43
2019-05-22T07:07:35.652Z,11.48
2019-05-22T07:08:45.782Z,11.45
2019-05-22T07:09:55.901Z,11.48
2019-05-22T07:11:06.018Z,11.5
2019-05-22T07:12:16.515Z,11.43
2019-05-22T07:13:26.656Z,11.4
2019-05-22T07:14:36.777Z,11.48
2019-05-22T07:15:46.917Z,11.5
2019-05-22T07:16:57.071Z,11.48
2019-05-22T07:18:07.351Z,11.42
2019-05-22T07:19:20.524Z,11.45
2019-05-22T07:20:30.639Z,11.58
2019-05-22T07:21:40.523Z,11.5
2019-05-22T07:22:50.702Z,11.57
2019-05-22T07:24:00.965Z,11.57
2019-05-22T07:25:11.081Z,11.58
2019-05-22T07:26:21.233Z,11.62
2019-05-22T07:27:31.346Z,11.62
2019-05-22T07:28:41.559Z,11.66
2019-05-22T07:29:51.506Z,11.53
2019-05-22T07:31:01.652Z,11.66
2019-05-22T07:32:11.785Z,11.65
2019-05-22T07:33:21.903Z,11.66
2019-05-22T07:34:32.021Z,11.66
2019-05-22T07:36:16.615Z,11.58
2019-05-22T07:37:27.248Z,11.66
2019-05-22T07:38:37.367Z,11.65
2019-05-22T07:39:47.484Z,11.66
2019-05-22T07:40:57.622Z,11.74
2019-05-22T07:42:07.753Z,11.65
2019-05-22T07:43:17.871Z,11.68
2019-05-22T07:44:28.093Z,11.68
2019-05-22T07:45:38.504Z,11.72
2019-05-22T07:46:48.888Z,11.82
2019-05-22T07:47:59.029Z,11.79
2019-05-22T07:49:09.412Z,11.77
2019-05-22T07:50:19.528Z,11.8
2019-05-22T07:51:29.703Z,11.79
2019-05-22T07:52:56.820Z,11.74
2019-05-22T07:54:06.972Z,11.8
2019-05-22T07:55:17.162Z,11.84
2019-05-22T07:56:27.245Z,11.95
2019-05-22T07:57:37.366Z,11.9
2019-05-22T07:58:47.574Z,11.89
2019-05-22T07:59:57.454Z,11.86
2019-05-22T08:01:07.595Z,11.94
2019-05-22T08:02:17.725Z,11.89
2019-05-22T08:03:27.599Z,11.86
2019-05-22T08:04:37.732Z,11.91
2019-05-22T08:05:47.852Z,11.82
2019-05-22T08:06:57.981Z,11.82
2019-05-22T08:08:08.137Z,11.74
2019-05-22T08:09:18.296Z,11.74
2019-05-22T08:10:28.516Z,11.74
2019-05-22T08:11:38.684Z,11.77
2019-05-22T08:12:48.919Z,11.76
2019-05-22T08:13:59.174Z,11.72
2019-05-22T08:15:09.336Z,11.82
2019-05-22T08:16:19.726Z,11.8
2019-05-22T08:17:29.928Z,11.79
2019-05-22T08:18:40.059Z,11.79
2019-05-22T08:19:50.216Z,11.8
2019-05-22T08:21:00.363Z,11.77
2019-05-22T08:22:12.786Z,11.82
2019-05-22T08:23:22.920Z,11.76
2019-05-22T08:24:33.036Z,11.76
2019-05-22T08:25:43.191Z,11.83
2019-05-22T08:26:59.596Z,11.76
2019-05-22T08:28:09.254Z,11.77
2019-05-22T08:29:19.516Z,11.79
2019-05-22T08:30:29.699Z,11.74
2019-05-22T08:31:39.631Z,11.71
2019-05-22T08:32:49.827Z,11.76
2019-05-22T08:34:00.030Z,11.68
2019-05-22T08:35:09.900Z,11.68
2019-05-22T08:36:20.056Z,11.72
2019-05-22T08:37:30.180Z,11.8
2019-05-22T08:38:40.371Z,11.8
2019-05-22T08:39:50.549Z,11.74
2019-05-22T08:41:00.698Z,11.71
2019-05-22T08:42:10.872Z,11.69
2019-05-22T08:43:21.066Z,11.72
2019-05-22T08:44:31.199Z,11.72
2019-05-22T08:45:41.460Z,11.77
2019-05-22T08:46:51.715Z,11.82
2019-05-22T08:48:02.081Z,11.76
2019-05-22T08:49:12.225Z,11.71
2019-05-22T08:50:22.465Z,11.8
2019-05-22T08:51:32.592Z,11.79
2019-05-22T08:52:42.753Z,11.8
2019-05-22T08:53:53.762Z,11.79
2019-05-22T08:55:03.906Z,11.76
2019-05-22T08:56:14.036Z,11.82
2019-05-22T08:57:24.149Z,11.87
2019-05-22T08:58:34.274Z,11.83
2019-05-22T08:59:44.415Z,11.9
2019-05-22T09:00:54.559Z,11.91
2019-05-22T09:02:04.723Z,11.87
2019-05-22T09:03:14.842Z,11.9
2019-05-22T09:04:24.972Z,11.98
2019-05-22T09:05:35.143Z,11.9
2019-05-22T09:06:45.027Z,11.86
2019-05-22T09:07:55.143Z,11.91
2019-05-22T09:09:05.261Z,11.9
2019-05-22T09:10:15.451Z,12.02
2019-05-22T09:11:25.582Z,12.05
2019-05-22T09:12:35.724Z,12.04
2019-05-22T09:13:45.845Z,12.05
2019-05-22T09:14:55.703Z,12.01
2019-05-22T09:16:06.885Z,11.89
2019-05-22T09:17:17.051Z,11.87
2019-05-22T09:18:27.248Z,11.86
2019-05-22T09:19:37.385Z,11.84
2019-05-22T09:20:54.465Z,11.87
2019-05-22T09:22:04.577Z,11.9
2019-05-22T09:23:15.030Z,11.91
2019-05-22T09:24:25.375Z,11.87
2019-05-22T09:25:35.546Z,11.89
2019-05-22T09:26:45.675Z,11.91
2019-05-22T09:27:55.783Z,11.95
2019-05-22T09:29:05.889Z,11.89
2019-05-22T09:30:16.030Z,11.95
2019-05-22T09:31:26.196Z,12.04
2019-05-22T09:32:36.312Z,11.99
2019-05-22T09:33:46.461Z,12.04
2019-05-22T09:34:56.991Z,12.07
2019-05-22T09:36:07.264Z,11.99
2019-05-22T09:37:17.385Z,12.11
2019-05-22T09:38:27.505Z,12.13
2019-05-22T09:39:37.685Z,12.08
2019-05-22T09:40:47.840Z,12.19
2019-05-22T09:41:57.953Z,12.16
2019-05-22T09:43:08.123Z,12.05
2019-05-22T09:44:20.346Z,12.11
2019-05-22T09:45:30.534Z,12.07
2019-05-22T09:46:40.735Z,12.04
2019-05-22T09:47:50.854Z,12.11
2019-05-22T09:49:01.081Z,12.04
2019-05-22T09:50:11.233Z,12.08
2019-05-22T09:51:21.540Z,12.04
2019-05-22T09:52:31.463Z,12.05
2019-05-22T09:53:41.588Z,12.09
2019-05-22T09:54:51.711Z,12.08
2019-05-22T09:56:01.829Z,12.07
2019-05-22T09:57:12.253Z,12.09
2019-05-22T09:58:22.507Z,12.02
2019-05-22T09:59:32.685Z,12.09
2019-05-22T10:00:42.853Z,12.22
2019-05-22T10:01:53.086Z,12.29
2019-05-22T10:03:03.322Z,12.23
2019-05-22T10:04:13.547Z,12.37
2019-05-22T10:05:23.701Z,12.38
2019-05-22T10:06:33.888Z,12.41
2019-05-22T10:08:04.145Z,12.37
2019-05-22T10:09:14.253Z,12.37
2019-05-22T10:10:24.381Z,12.38
2019-05-22T10:11:34.253Z,12.44
2019-05-22T10:12:44.147Z,12.44
2019-05-22T10:13:54.002Z,12.41
2019-05-22T10:15:05.070Z,12.37
2019-05-22T10:16:15.859Z,12.34
2019-05-22T10:17:26.035Z,12.45
2019-05-22T10:18:36.168Z,12.39
2019-05-22T10:19:46.302Z,12.23
2019-05-22T10:20:56.439Z,12.2
2019-05-22T10:22:06.747Z,12.26
2019-05-22T10:23:20.962Z,12.27
2019-05-22T10:24:31.125Z,12.27
2019-05-22T10:25:41.345Z,12.34
2019-05-22T10:26:51.486Z,12.35
2019-05-22T10:28:04.187Z,12.39
2019-05-22T10:29:14.355Z,12.35
2019-05-22T10:30:24.309Z,12.5
2019-05-22T10:31:34.203Z,12.41
2019-05-22T10:32:44.311Z,12.38
2019-05-22T10:33:56.872Z,12.42
2019-05-22T10:35:06.644Z,12.35
2019-05-22T10:36:17.759Z,12.37
2019-05-22T10:37:27.876Z,12.27
2019-05-22T10:38:38.060Z,12.22
2019-05-22T10:39:48.256Z,12.22
2019-05-22T10:41:01.675Z,12.16
2019-05-22T10:42:11.820Z,12.05
2019-05-22T10:43:22.185Z,12.13
2019-05-22T10:44:32.294Z,12.07
2019-05-22T10:45:42.425Z,12.04
2019-05-22T10:46:52.561Z,12.04
2019-05-22T10:48:02.690Z,12.09
2019-05-22T10:49:12.838Z,12.11
2019-05-22T10:50:22.983Z,12.05
2019-05-22T10:51:33.125Z,12.15
2019-05-22T10:52:43.258Z,12.17
2019-05-22T10:53:59.333Z,12.23
2019-05-22T10:55:09.217Z,12.15
2019-05-22T10:56:19.378Z,12.22
2019-05-22T10:57:29.549Z,12.09
2019-05-22T10:58:39.696Z,12.22
2019-05-22T10:59:49.841Z,12.26
2019-05-22T11:01:00.055Z,12.23
2019-05-22T11:02:10.217Z,12.2
2019-05-22T11:03:20.338Z,12.16
2019-05-22T11:04:30.462Z,12.13
2019-05-22T11:05:40.606Z,12.23
2019-05-22T11:06:50.730Z,12.15
2019-05-22T11:08:00.624Z,12.08
2019-05-22T11:09:10.855Z,12.13
2019-05-22T11:10:20.982Z,12.05
2019-05-22T11:11:31.127Z,12.15
2019-05-22T11:12:41.275Z,12.17
2019-05-22T11:14:09.209Z,12.19
2019-05-22T11:15:19.641Z,12.16
2019-05-22T11:16:29.781Z,12.09
2019-05-22T11:17:39.902Z,12.16
2019-05-22T11:18:50.045Z,12.24
2019-05-22T11:20:00.190Z,12.31
2019-05-22T11:21:42.296Z,12.22
2019-05-22T11:22:52.443Z,12.23
2019-05-22T11:24:02.649Z,12.2
2019-05-22T11:25:12.802Z,12.26
2019-05-22T11:26:22.926Z,12.17
2019-05-22T11:27:33.056Z,12.19
2019-05-22T11:28:43.187Z,12.29
2019-05-22T11:29:53.312Z,12.17
2019-05-22T11:31:03.218Z,12.08
2019-05-22T11:32:13.376Z,12.09
2019-05-22T11:33:23.496Z,12.04
2019-05-22T11:34:33.889Z,12.01
2019-05-22T11:35:44.033Z,12.09
2019-05-22T11:36:54.168Z,12.09
2019-05-22T11:38:04.298Z,12.08
2019-05-22T11:39:14.543Z,12.09
2019-05-22T11:40:24.703Z,12.07
2019-05-22T11:41:34.820Z,12.05
2019-05-22T11:42:44.967Z,12.19
2019-05-22T11:43:55.144Z,12.23
2019-05-22T11:45:04.918Z,12.2
2019-05-22T11:46:15.036Z,12.16
2019-05-22T11:47:24.944Z,12.22
2019-05-22T11:48:35.216Z,12.17
2019-05-22T11:49:45.085Z,12.16
2019-05-22T11:50:55.233Z,12.08
2019-05-22T11:52:08.761Z,12.09
2019-05-22T11:53:18.890Z,12.16
2019-05-22T11:54:29.031Z,12.16
2019-05-22T11:55:50.412Z,12.17
2019-05-22T11:57:00.545Z,12.11
2019-05-22T11:58:10.677Z,12.22
2019-05-22T11:59:20.819Z,12.19
2019-05-22T12:00:30.960Z,12.16
2019-05-22T12:01:40.847Z,12.22
2019-05-22T12:02:51.024Z,12.2
2019-05-22T12:04:01.194Z,12.22
2019-05-22T12:05:11.328Z,12.27
2019-05-22T12:06:21.492Z,12.26
2019-05-22T12:07:31.662Z,12.23
2019-05-22T12:08:41.920Z,12.22
2019-05-22T12:09:51.929Z,12.23
2019-05-22T12:11:01.823Z,12.26
2019-05-22T12:12:11.996Z,12.22
2019-05-22T12:13:22.152Z,12.2
2019-05-22T12:14:32.331Z,12.15
2019-05-22T12:15:42.467Z,12.22
2019-05-22T12:16:55.553Z,12.35
2019-05-22T12:18:05.769Z,12.42
2019-05-22T12:19:15.898Z,12.44
2019-05-22T12:20:25.785Z,12.44
2019-05-22T12:21:35.934Z,12.57
2019-05-22T12:22:46.164Z,12.56
2019-05-22T12:23:56.293Z,12.55
2019-05-22T12:25:06.169Z,12.64
2019-05-22T12:26:16.309Z,12.64
2019-05-22T12:27:26.174Z,12.59
2019-05-22T12:28:36.350Z,12.64
2019-05-22T12:29:46.222Z,12.55
2019-05-22T12:30:56.380Z,12.63
2019-05-22T12:32:06.543Z,12.62
2019-05-22T12:33:19.118Z,12.68
2019-05-22T12:34:28.983Z,12.71
2019-05-22T12:35:38.758Z,12.74
2019-05-22T12:36:51.310Z,12.8
2019-05-22T12:38:02.093Z,12.88
2019-05-22T12:39:12.359Z,12.96
2019-05-22T12:40:22.296Z,13.03
2019-05-22T12:41:32.426Z,13.12
2019-05-22T12:42:42.584Z,13.13
2019-05-22T12:43:52.733Z,13.26
2019-05-22T12:45:03.489Z,13.27
2019-05-22T12:46:13.803Z,13.36
2019-05-22T12:47:23.937Z,13.36
2019-05-22T12:48:34.052Z,13.34
2019-05-22T12:49:44.198Z,13.27
2019-05-22T12:50:54.354Z,13.15
2019-05-22T12:52:04.240Z,13.18
2019-05-22T12:53:14.462Z,13.16
2019-05-22T12:54:24.592Z,13.11
2019-05-22T12:55:57.378Z,13.01
2019-05-22T12:57:07.518Z,13.08
2019-05-22T12:58:17.661Z,13.01
2019-05-22T12:59:27.793Z,12.88
2019-05-22T13:00:38.009Z,12.9
2019-05-22T13:01:48.144Z,12.92
2019-05-22T13:02:58.305Z,12.9
2019-05-22T13:04:08.458Z,12.85
2019-05-22T13:05:19.550Z,12.78
2019-05-22T13:06:29.693Z,12.63
2019-05-22T13:07:39.904Z,12.66
2019-05-22T13:08:50.104Z,12.68
2019-05-22T13:10:00.283Z,12.62
2019-05-22T13:11:10.664Z,12.64
2019-05-22T13:12:20.790Z,12.63
2019-05-22T13:13:31.020Z,12.66
2019-05-22T13:14:41.221Z,12.55
2019-05-22T13:15:51.454Z,12.66
2019-05-22T13:17:01.605Z,12.57
2019-05-22T13:18:11.975Z,12.56
2019-05-22T13:19:22.241Z,12.6
2019-05-22T13:20:47.502Z,12.55
2019-05-22T13:21:57.384Z,12.62
2019-05-22T13:23:07.519Z,12.63
2019-05-22T13:24:17.674Z,12.57
2019-05-22T13:25:27.791Z,12.63
2019-05-22T13:26:37.979Z,12.66
2019-05-22T13:27:48.259Z,12.71
2019-05-22T13:28:58.464Z,12.66
2019-05-22T13:30:08.655Z,12.66
2019-05-22T13:31:18.820Z,12.71
2019-05-22T13:32:29.017Z,12.74
2019-05-22T13:33:39.144Z,12.66
2019-05-22T13:34:49.332Z,12.8
2019-05-22T13:35:59.513Z,12.77
2019-05-22T13:37:09.705Z,12.84
2019-05-22T13:38:19.928Z,12.84
2019-05-22T13:39:30.069Z,12.72
2019-05-22T13:40:40.275Z,12.74
2019-05-22T13:41:50.429Z,12.63
2019-05-22T13:43:00.630Z,12.63
2019-05-22T13:44:10.524Z,12.62
2019-05-22T13:45:33.524Z,12.7
2019-05-22T13:46:43.679Z,12.78
2019-05-22T13:47:53.819Z,12.7
2019-05-22T13:49:04.006Z,12.81
2019-05-22T13:50:14.181Z,12.81
2019-05-22T13:51:24.375Z,12.84
2019-05-22T13:52:34.534Z,12.85
2019-05-22T13:53:44.697Z,12.85
2019-05-22T13:54:54.867Z,12.85
2019-05-22T13:56:04.741Z,12.95
2019-05-22T13:57:14.959Z,12.93
2019-05-22T13:58:25.097Z,13.06
2019-05-22T13:59:35.242Z,13.01
2019-05-22T14:00:45.388Z,13.04
2019-05-22T14:01:55.529Z,13.06
2019-05-22T14:03:05.683Z,13.04
2019-05-22T14:04:15.842Z,13.03
2019-05-22T14:05:26.013Z,13.04
2019-05-22T14:06:36.193Z,13.13
2019-05-22T14:07:46.335Z,13.38
2019-05-22T14:08:56.516Z,13.38
2019-05-22T14:10:06.696Z,13.56
2019-05-22T14:11:16.818Z,13.61
2019-05-22T14:12:26.991Z,13.71
2019-05-22T14:13:37.132Z,13.81
2019-05-22T14:14:47.267Z,14
2019-05-22T14:16:02.070Z,14
2019-05-22T14:17:11.974Z,14.04
2019-05-22T14:18:22.188Z,14.18
2019-05-22T14:19:32.388Z,14.13
2019-05-22T14:20:42.695Z,14.14
2019-05-22T14:21:56.662Z,14.19
2019-05-22T14:23:06.922Z,14.25
2019-05-22T14:24:17.118Z,14.21
2019-05-22T14:25:28.572Z,14.25
2019-05-22T14:27:56.563Z,14.32
2019-05-22T14:29:09.250Z,14.36
2019-05-22T14:30:20.630Z,14.37
2019-05-22T14:31:33.126Z,14.25
